Last 24 Hours

Thomas Mountain

10 Minute Data | America/Los_Angeles
as of 9/5/26 5:52 AM PDT
Date & Time Temp (°F) Dew Pt (°F) RH (%) Wind Spd (mph) Wind Dir (°) Wind Gust (mph) Wind Gst Dir (°) Daily Max Temp (°F) Daily Min Temp (°F)
9/5/26 - 0550 62.9 28.7 27 1.9 W | 272 2.7 W | 264 63.0 60.1
9/5/26 - 0540 62.9 28.6 27 2.4 W | 274 3.1 W | 265 63.0 60.1
9/5/26 - 0530 62.4 30.2 30 1.7 NW | 315 2.8 WNW | 286 62.8 60.1
9/5/26 - 0520 61.8 29.5 29 1.3 N | 2 2.3 N | 0 62.8 60.1
9/5/26 - 0510 61.1 28.7 29 0.1 N | 1 1.3 N | 0 62.8 60.1
9/5/26 - 0500 61.4 29.2 29 0.4 SW | 235 1.4 SW | 226 62.8 60.1
9/5/26 - 0450 61.7 29.4 29 2.1 SW | 222 3.1 SW | 214 62.8 60.1
9/5/26 - 0440 61.7 29.6 30 2.5 SSW | 201 3.3 SSW | 207 62.8 60.1
9/5/26 - 0430 61.9 32.0 32 2.3 S | 184 3.4 S | 186 62.8 60.1
9/5/26 - 0420 62.4 35.1 36 2.4 SW | 216 3.1 SSW | 204 62.8 60.1
9/5/26 - 0410 62.4 33.8 34 0.8 WSW | 245 1.2 SW | 236 62.8 60.1
9/5/26 - 0400 62.7 31.3 30 1.7 SW | 224 2.2 SW | 225 62.8 60.1
9/5/26 - 0350 62.0 32.1 32 0.4 WSW | 249 1.8 SW | 232 62.5 60.1
9/5/26 - 0340 62.0 35.8 38 0.0 N | 0 0.0 W | 278 62.4 60.1
9/5/26 - 0330 62.3 36.0 37 0.2 W | 267 1.0 W | 263 62.4 60.1
9/5/26 - 0320 62.0 35.8 38 0.4 W | 262 1.8 WSW | 244 62.4 60.1
9/5/26 - 0310 62.0 36.1 38 0.0 N | 0 0.0 SW | 217 62.4 60.1
9/5/26 - 0300 62.3 35.4 36 0.6 SSW | 208 1.8 SSW | 199 62.4 60.1
9/5/26 - 0250 62.1 36.8 39 1.9 SSW | 199 2.0 SSW | 200 62.1 60.1
9/5/26 - 0240 60.9 34.6 37 1.9 S | 176 2.7 S | 178 62.1 60.1
9/5/26 - 0230 60.3 33.7 37 1.4 SSE | 168 2.6 SSE | 168 62.1 60.1
9/5/26 - 0220 61.3 36.5 39 0.2 S | 170 0.9 S | 169 62.1 60.7
9/5/26 - 0210 61.9 34.7 36 0.4 SSW | 201 2.3 SSW | 201 62.1 61.2
9/5/26 - 0200 62.1 34.2 35 2.7 SSW | 205 3.4 SSW | 203 62.1 61.2
9/5/26 - 0150 61.8 34.6 36 1.8 SW | 225 2.8 SW | 220 61.9 61.2
9/5/26 - 0140 61.8 34.6 36 2.1 WSW | 247 3.3 SW | 232 61.9 61.2
9/5/26 - 0130 61.8 34.4 36 3.0 WSW | 246 3.8 WSW | 252 61.9 61.2
9/5/26 - 0120 61.5 34.4 36 3.8 W | 277 5.1 WNW | 287 61.8 61.2
9/5/26 - 0110 61.4 36.0 39 4.7 WNW | 282 5.6 WNW | 286 61.4 61.2
9/5/26 - 0100 61.1 38.3 43 5.0 WNW | 288 5.6 WNW | 282 75.8 55.6
9/5/26 - 0050 61.0 38.7 44 4.6 W | 264 5.6 W | 262 75.8 55.6
9/5/26 - 0040 61.4 38.0 42 5.2 WSW | 250 6.6 WSW | 253 75.8 55.6
9/5/26 - 0030 62.0 37.5 40 5.0 WSW | 237 5.9 SW | 224 75.8 55.6
9/5/26 - 0020 62.2 37.6 40 3.1 W | 264 5.0 SW | 236 75.8 55.6
9/5/26 - 0010 62.2 36.9 39 3.4 W | 281 4.9 W | 280 75.8 55.6
9/5/26 - 0000 62.0 36.9 39 3.2 WSW | 250 3.9 WSW | 250 75.8 55.6
9/4/26 - 2350 61.5 37.4 41 2.7 WSW | 242 3.7 WSW | 254 75.8 55.6
9/4/26 - 2340 61.9 37.2 40 3.1 SW | 225 4.2 SW | 225 75.8 55.6
9/4/26 - 2330 63.0 36.7 38 4.2 WSW | 251 5.4 W | 266 75.8 55.6
9/4/26 - 2320 63.3 36.8 37 4.3 WSW | 257 6.4 WSW | 258 75.8 55.6
9/4/26 - 2310 63.2 37.2 38 2.8 W | 259 3.8 W | 262 75.8 55.6
9/4/26 - 2300 63.4 37.3 38 2.5 WSW | 257 3.9 WSW | 246 75.8 55.6
9/4/26 - 2250 63.5 37.4 38 3.1 WSW | 252 3.9 WSW | 250 75.8 55.6
9/4/26 - 2240 63.5 37.3 38 2.7 WSW | 252 4.2 WSW | 245 75.8 55.6
9/4/26 - 2230 63.5 37.3 38 2.2 WSW | 245 4.1 WSW | 240 75.8 55.6
9/4/26 - 2220 63.5 37.4 38 2.6 WSW | 251 4.4 WSW | 253 75.8 55.6
9/4/26 - 2210 63.2 37.4 38 2.7 W | 266 4.5 W | 264 75.8 55.6
9/4/26 - 2200 63.1 37.4 38 2.0 W | 268 3.4 W | 264 75.8 55.6
9/4/26 - 2150 62.8 37.4 39 2.2 W | 270 3.7 W | 271 75.8 55.6
9/4/26 - 2140 62.9 37.4 39 3.0 W | 262 4.2 WSW | 237 75.8 55.6
9/4/26 - 2130 62.9 35.8 36 2.8 WSW | 249 3.7 WSW | 244 75.8 55.6
9/4/26 - 2120 63.8 34.7 34 3.6 SW | 234 4.6 SW | 235 75.8 55.6
9/4/26 - 2110 64.3 34.5 33 2.8 WSW | 250 4.3 W | 262 75.8 55.6
9/4/26 - 2100 64.3 34.5 33 2.5 WNW | 282 4.5 W | 280 75.8 55.6
9/4/26 - 2050 64.5 34.8 33 2.9 NW | 306 4.7 WNW | 297 75.8 55.6
9/4/26 - 2040 63.8 35.6 35 2.7 NNW | 333 4.1 NNW | 348 75.8 55.6
9/4/26 - 2030 63.7 37.5 38 1.0 NW | 311 3.0 WNW | 292 75.8 55.6
9/4/26 - 2020 63.3 39.7 42 3.5 WSW | 252 5.0 WSW | 254 75.8 55.6
9/4/26 - 2010 62.7 41.4 45 3.0 SW | 229 3.6 SW | 218 75.8 55.6
9/4/26 - 2000 62.7 41.6 46 3.5 SW | 217 4.9 SSW | 211 75.8 55.6
9/4/26 - 1950 62.8 41.2 45 3.4 WSW | 244 4.6 WSW | 250 75.8 55.6
9/4/26 - 1940 63.4 41.4 45 4.7 SW | 224 6.3 SW | 219 75.8 55.6
9/4/26 - 1930 63.8 41.9 45 5.3 SSW | 213 7.2 SSW | 210 75.8 55.6
9/4/26 - 1920 65.5 41.3 41 5.8 SW | 226 7.6 SW | 236 75.8 55.6
9/4/26 - 1910 66.5 41.9 41 6.8 WSW | 242 10.7 WSW | 237 75.8 55.6
9/4/26 - 1900 67.2 42.5 41 8.6 WSW | 242 12.7 WSW | 241 75.8 55.6
9/4/26 - 1850 67.8 43.4 41 8.4 WSW | 243 11.5 WSW | 241 75.8 55.6
9/4/26 - 1840 68.2 43.6 41 8.6 WSW | 246 12.9 WSW | 256 75.8 55.6
9/4/26 - 1830 68.4 43.8 41 8.0 WSW | 253 14.8 SW | 228 75.8 55.6
9/4/26 - 1820 69.0 44.2 41 8.4 WSW | 251 14.3 WSW | 249 75.8 55.6
9/4/26 - 1810 69.3 44.5 41 8.9 WSW | 244 14.6 SW | 234 75.8 55.6
9/4/26 - 1800 69.8 44.8 41 9.9 WSW | 250 15.9 WSW | 252 75.8 55.6
9/4/26 - 1750 69.7 45.2 41 10.3 WSW | 250 18.1 SW | 234 75.8 55.6
9/4/26 - 1740 70.7 45.4 40 10.4 WSW | 249 17.4 W | 268 75.8 55.6
9/4/26 - 1730 71.7 45.2 39 11.0 SW | 236 18.8 WSW | 241 75.8 55.6
9/4/26 - 1720 71.2 44.4 38 10.5 WSW | 249 19.1 WSW | 246 75.8 55.6
9/4/26 - 1710 72.8 43.9 36 12.4 WSW | 240 23.1 WSW | 241 75.8 55.6
9/4/26 - 1700 71.6 43.4 36 10.1 WSW | 255 18.4 WSW | 239 75.8 55.6
9/4/26 - 1650 73.9 42.9 33 10.1 WSW | 247 18.7 WSW | 257 75.8 55.6
9/4/26 - 1640 72.7 42.5 34 9.8 WSW | 242 20.0 WSW | 242 75.8 55.6
9/4/26 - 1630 72.8 42.2 33 12.6 WSW | 251 25.1 WSW | 239 75.8 55.6
9/4/26 - 1620 73.3 41.8 32 12.8 WSW | 240 20.8 WSW | 237 75.8 55.6
9/4/26 - 1610 73.6 39.7 29 13.8 WSW | 238 20.8 WSW | 245 75.8 55.6
9/4/26 - 1600 74.4 38.6 27 12.0 SW | 236 18.6 SSW | 205 75.8 55.6
9/4/26 - 1550 74.4 40.3 29 12.4 SW | 231 19.4 SW | 218 75.8 55.6
9/4/26 - 1540 73.8 40.8 30 10.6 WSW | 248 19.5 WSW | 240 75.8 55.6
9/4/26 - 1530 73.1 39.8 30 12.8 W | 259 22.4 W | 259 75.8 55.6
9/4/26 - 1520 73.4 39.8 30 12.2 WSW | 248 21.0 WSW | 246 75.8 55.6
9/4/26 - 1510 73.7 38.6 28 13.5 WSW | 239 22.7 SW | 230 75.8 55.6
9/4/26 - 1500 74.3 37.2 26 13.6 SW | 229 24.0 SW | 226 75.8 55.6
9/4/26 - 1450 74.4 36.8 26 13.8 SW | 234 23.9 SW | 228 75.8 55.6
9/4/26 - 1440 74.9 35.6 24 14.2 WSW | 238 22.1 WSW | 246 75.8 55.6
9/4/26 - 1430 74.2 34.6 24 13.0 WSW | 249 21.6 WSW | 243 75.5 55.6
9/4/26 - 1420 74.0 34.3 23 14.6 WSW | 250 22.7 SW | 232 75.5 55.6
9/4/26 - 1410 74.0 35.7 25 14.2 WSW | 245 22.1 SW | 233 75.5 55.6
9/4/26 - 1400 74.6 35.7 24 14.0 WSW | 239 22.6 WSW | 247 75.5 55.6
9/4/26 - 1350 74.1 34.7 24 12.5 WSW | 245 21.7 WSW | 245 75.5 55.6
9/4/26 - 1340 74.4 34.4 23 11.8 SW | 231 20.6 SW | 218 75.2 55.6
9/4/26 - 1330 73.4 34.4 24 11.8 WSW | 249 21.6 WSW | 240 74.6 55.6
9/4/26 - 1320 72.9 33.6 24 13.1 WSW | 247 21.0 WSW | 245 74.6 55.6
9/4/26 - 1310 73.3 29.0 19 9.6 WSW | 247 17.8 WSW | 240 73.9 55.6
9/4/26 - 1300 72.9 26.1 17 12.3 WSW | 243 18.6 SW | 220 73.8 55.6
9/4/26 - 1250 72.0 30.8 22 12.8 WSW | 238 20.5 WSW | 242 73.7 55.6
9/4/26 - 1240 72.9 28.8 19 11.6 WSW | 238 21.0 SW | 229 73.7 55.6
9/4/26 - 1230 71.6 29.7 21 12.0 WSW | 248 19.5 WSW | 247 73.5 55.6
9/4/26 - 1220 71.4 29.4 21 12.6 WSW | 247 19.9 WSW | 244 73.5 55.6
9/4/26 - 1210 71.5 31.7 23 12.6 WSW | 242 22.2 WSW | 240 73.5 55.6
9/4/26 - 1200 72.8 31.7 22 13.1 SW | 231 22.2 SW | 229 73.5 55.6
9/4/26 - 1150 71.2 30.2 22 12.8 SW | 225 23.8 SW | 221 72.5 55.6
9/4/26 - 1140 71.4 30.7 22 12.2 WSW | 244 18.0 SW | 229 72.5 55.6
9/4/26 - 1130 71.2 31.8 23 12.5 SW | 230 18.7 SW | 224 72.5 55.6
9/4/26 - 1120 71.4 31.3 23 12.2 SW | 228 20.0 WSW | 241 72.5 55.6
9/4/26 - 1110 71.4 30.0 22 11.8 WSW | 237 21.6 SW | 219 72.3 55.6
9/4/26 - 1100 71.3 26.9 19 11.5 SW | 231 18.2 SW | 233 72.2 55.6
9/4/26 - 1050 71.1 26.9 19 9.5 SW | 224 17.6 WSW | 255 72.2 55.6
9/4/26 - 1040 70.8 27.8 20 11.3 SW | 220 19.1 SW | 220 71.2 55.6
9/4/26 - 1030 70.5 28.4 21 9.5 SW | 216 16.4 S | 191 71.0 55.6
9/4/26 - 1020 70.2 27.8 20 8.9 WSW | 241 14.7 SW | 232 71.0 55.6
9/4/26 - 1010 69.8 28.1 21 8.9 SW | 230 14.2 SW | 224 70.7 55.6
9/4/26 - 1000 69.8 27.4 20 8.2 SW | 221 15.0 SW | 220 70.7 55.6
9/4/26 - 0950 68.6 25.5 20 7.6 SSW | 207 11.4 SSW | 211 69.6 55.6
9/4/26 - 0940 67.6 24.4 19 4.9 WSW | 246 9.9 W | 264 68.3 55.6
9/4/26 - 0930 67.0 23.3 19 6.4 SW | 217 11.1 SW | 227 68.3 55.6
9/4/26 - 0920 67.7 25.3 20 5.2 SSW | 205 10.0 SSW | 206 68.3 55.6
9/4/26 - 0910 67.7 26.4 21 3.7 SSW | 204 6.4 SW | 231 68.3 55.6
9/4/26 - 0900 68.0 31.3 25 1.9 SSW | 197 5.5 ESE | 102 68.3 55.6
9/4/26 - 0850 66.8 31.0 26 3.0 ESE | 107 6.7 E | 85 68.0 55.6
9/4/26 - 0840 66.5 29.0 24 1.9 NE | 51 5.2 E | 93 67.0 55.6
9/4/26 - 0830 65.2 28.5 25 3.4 NE | 41 7.6 ENE | 62 66.5 55.6
9/4/26 - 0820 64.1 25.5 23 5.0 NE | 45 8.1 NE | 48 64.5 55.6
9/4/26 - 0810 63.4 24.1 22 3.3 NE | 45 6.6 NE | 47 64.0 55.6
9/4/26 - 0800 62.3 23.3 22 4.6 NE | 46 6.3 NE | 44 62.7 55.6
9/4/26 - 0750 62.0 24.2 23 4.4 NE | 50 6.3 ENE | 57 62.2 55.6
9/4/26 - 0740 61.5 22.2 22 4.7 NE | 48 6.1 NE | 44 61.8 55.6
9/4/26 - 0730 60.8 23.7 24 3.5 NE | 44 5.0 NE | 41 61.3 55.6
9/4/26 - 0720 60.9 26.0 26 3.3 ENE | 60 5.0 NE | 52 61.3 55.6
9/4/26 - 0710 60.5 28.6 30 1.3 NE | 53 2.8 NE | 54 60.9 55.6
9/4/26 - 0700 59.1 27.7 30 1.5 NE | 48 2.5 NE | 38 60.9 55.6
9/4/26 - 0650 57.9 26.9 30 2.8 NE | 34 4.1 NNE | 24 60.9 55.6
9/4/26 - 0640 57.6 28.0 32 3.7 NNE | 15 5.5 N | 7 60.9 55.6
9/4/26 - 0630 57.9 29.5 34 4.6 N | 351 6.1 N | 3 60.9 55.6
9/4/26 - 0620 57.3 30.5 36 5.8 NNW | 348 7.3 N | 5 60.9 55.6
9/4/26 - 0610 57.2 31.0 37 5.9 N | 354 8.4 N | 3 60.9 55.6
9/4/26 - 0600 57.9 32.2 38 5.3 N | 349 6.6 N | 352 60.9 55.6
9/4/26 - 0550 56.8 32.6 40 5.8 NNW | 346 7.1 NNW | 346 60.9 55.6
Max 74.9 45.4 46 14.6 - 25.1 - 75.8 61.2
Avg 66.1 34.5 32 6.2 - 10.2 - - -
Min 56.8 22.2 17 0.0 - 0.0 - 60.9 55.6